Time;durP1;ratioP1;P1;durP2;ratioP2;P2;SDS_P1;SDS_P2;PMS_P1;PMS_P2;Temp;Humidity;BMP_temperature;BMP_pressure;BME280_temperature;BME280_humidity;BME280_pressure;Samples;Min_cycle;Max_cycle;Signal;HPM_P1;HPM_P2
2023/11/09 00:01:32;;;;;;;12.98;5.72;;;12.50;73.90;;;;;;5035126;28;20038;-76
2023/11/09 00:03:57;;;;;;;10.23;5.10;;;12.50;74.10;;;;;;5035007;28;20048;-76
2023/11/09 00:06:23;;;;;;;11.30;5.03;;;12.50;74.00;;;;;;5034835;28;20080;-76
2023/11/09 00:08:49;;;;;;;10.75;5.05;;;12.50;74.00;;;;;;5034697;28;20491;-76
2023/11/09 00:11:15;;;;;;;13.05;5.20;;;12.50;73.90;;;;;;5034701;28;20053;-76
2023/11/09 00:13:40;;;;;;;12.07;4.90;;;12.50;74.10;;;;;;5034800;28;20100;-76
2023/11/09 00:16:06;;;;;;;11.35;5.03;;;12.50;74.20;;;;;;5034450;28;20033;-77
2023/11/09 00:18:32;;;;;;;7.82;4.50;;;12.50;74.00;;;;;;5034359;28;20037;-76
2023/11/09 00:20:58;;;;;;;10.43;4.32;;;12.50;73.90;;;;;;5034901;28;20090;-75
2023/11/09 00:23:24;;;;;;;10.10;4.82;;;12.40;73.70;;;;;;5034614;28;20080;-75
2023/11/09 00:25:50;;;;;;;8.40;3.67;;;12.40;73.50;;;;;;5034500;28;20052;-76
2023/11/09 00:28:16;;;;;;;10.40;4.07;;;12.30;73.30;;;;;;5032999;28;20037;-75
2023/11/09 00:30:43;;;;;;;9.88;4.03;;;12.30;73.30;;;;;;5034763;28;20108;-75
2023/11/09 00:33:09;;;;;;;9.10;3.75;;;12.30;73.50;;;;;;5034516;28;20037;-75
2023/11/09 00:35:35;;;;;;;7.65;4.05;;;12.20;73.50;;;;;;5034333;28;20030;-76
2023/11/09 00:38:03;;;;;;;10.73;4.85;;;12.20;73.50;;;;;;5034391;28;20072;-76
2023/11/09 00:40:29;;;;;;;7.50;3.67;;;12.20;73.50;;;;;;5034047;28;20021;-75
2023/11/09 00:42:54;;;;;;;10.02;4.53;;;12.10;73.60;;;;;;5034244;28;20473;-76
2023/11/09 00:45:20;;;;;;;9.90;4.35;;;12.10;73.80;;;;;;5033634;28;20040;-75
2023/11/09 00:47:46;;;;;;;7.95;3.85;;;12.00;73.80;;;;;;5033671;28;20053;-76
2023/11/09 00:50:12;;;;;;;10.38;4.32;;;12.00;74.10;;;;;;5043553;28;20128;-76
2023/11/09 00:52:39;;;;;;;8.95;4.05;;;11.90;74.00;;;;;;5037660;28;20037;-75
2023/11/09 00:55:05;;;;;;;11.70;4.50;;;11.90;74.20;;;;;;5037394;28;20041;-74
2023/11/09 00:57:32;;;;;;;7.32;3.63;;;11.90;74.00;;;;;;5033742;28;20033;-75
2023/11/09 01:00:02;;;;;;;6.85;3.50;;;11.90;74.10;;;;;;5036243;28;20049;-74
2023/11/09 01:02:33;;;;;;;10.80;3.95;;;11.90;74.00;;;;;;5053577;28;20064;-74
2023/11/09 01:04:59;;;;;;;7.88;3.58;;;11.90;73.90;;;;;;5053109;28;20033;-74
2023/11/09 01:07:25;;;;;;;10.43;3.63;;;11.90;73.80;;;;;;5053441;28;20541;-76
2023/11/09 01:09:51;;;;;;;7.68;3.33;;;11.90;73.60;;;;;;5053454;28;20475;-75
2023/11/09 01:12:17;;;;;;;7.85;3.42;;;11.90;73.50;;;;;;5053339;28;20052;-76
2023/11/09 01:14:43;;;;;;;6.63;3.30;;;11.80;73.50;;;;;;5053364;28;20048;-75
2023/11/09 01:17:11;;;;;;;6.57;3.78;;;11.80;73.50;;;;;;5046293;28;20033;-75
2023/11/09 01:19:37;;;;;;;10.57;3.90;;;11.70;73.20;;;;;;5033516;28;20152;-75
2023/11/09 01:22:03;;;;;;;11.27;3.85;;;11.70;73.50;;;;;;5031149;28;20084;-75
2023/11/09 01:24:28;;;;;;;10.65;3.60;;;11.60;73.80;;;;;;5033427;28;20104;-75
2023/11/09 01:26:55;;;;;;;8.20;3.63;;;11.70;73.90;;;;;;5033077;28;20449;-75
2023/11/09 01:29:21;;;;;;;8.27;3.20;;;11.70;73.80;;;;;;5033274;28;20481;-75
2023/11/09 01:31:51;;;;;;;9.35;3.65;;;11.70;73.90;;;;;;5033415;28;20080;-75
2023/11/09 01:34:18;;;;;;;12.73;3.83;;;11.70;74.10;;;;;;5033198;28;20405;-76
2023/11/09 01:36:44;;;;;;;8.60;4.20;;;11.70;73.90;;;;;;5051414;28;20021;-75
2023/11/09 01:39:12;;;;;;;9.23;3.88;;;11.60;73.80;;;;;;5052383;28;20098;-74
2023/11/09 01:41:38;;;;;;;9.90;3.38;;;11.60;73.80;;;;;;5031990;28;20034;-76
2023/11/09 01:44:04;;;;;;;8.65;3.55;;;11.60;73.90;;;;;;5032999;28;20033;-76
2023/11/09 01:46:31;;;;;;;15.60;3.92;;;11.50;73.90;;;;;;5033049;28;20466;-74
2023/11/09 01:48:59;;;;;;;11.35;4.28;;;11.40;74.50;;;;;;5032835;28;20497;-74
2023/11/09 01:51:26;;;;;;;9.18;3.70;;;11.40;74.20;;;;;;5052244;28;20045;-75
2023/11/09 01:53:53;;;;;;;8.25;4.10;;;11.40;74.20;;;;;;5052737;28;20091;-75
2023/11/09 01:56:19;;;;;;;10.05;4.13;;;11.40;74.20;;;;;;5052684;28;20081;-74
2023/11/09 01:58:47;;;;;;;9.45;3.90;;;11.40;74.30;;;;;;5052518;28;20045;-75
2023/11/09 02:01:13;;;;;;;8.32;4.13;;;11.40;74.20;;;;;;5051984;28;20491;-75
2023/11/09 02:03:43;;;;;;;9.80;3.80;;;11.40;74.30;;;;;;5052241;28;20493;-75
2023/11/09 02:06:09;;;;;;;8.60;3.70;;;11.50;74.40;;;;;;5052041;28;20396;-75
2023/11/09 02:08:36;;;;;;;8.90;4.38;;;11.50;74.40;;;;;;5052554;28;20208;-75
2023/11/09 02:11:03;;;;;;;9.23;3.50;;;11.50;74.40;;;;;;5052630;28;20370;-74
2023/11/09 02:13:29;;;;;;;8.65;3.30;;;11.50;74.30;;;;;;5052298;28;20029;-77
2023/11/09 02:15:55;;;;;;;7.00;3.42;;;11.40;74.20;;;;;;5052346;28;20025;-74
2023/11/09 02:18:22;;;;;;;7.70;3.50;;;11.40;74.20;;;;;;5052419;28;20059;-74
2023/11/09 02:20:52;;;;;;;12.48;4.55;;;11.40;74.10;;;;;;5052278;28;20056;-75
2023/11/09 02:23:25;;;;;;;7.15;3.30;;;11.30;74.00;;;;;;5039613;28;20461;-75
2023/11/09 02:25:52;;;;;;;7.15;3.30;;;11.30;74.00;;;;;;5032820;28;20033;-76
2023/11/09 02:28:19;;;;;;;10.50;3.35;;;11.30;74.20;;;;;;5032415;28;20029;-75
2023/11/09 02:30:44;;;;;;;7.50;3.78;;;11.30;74.30;;;;;;5014589;28;20032;-75
2023/11/09 02:33:11;;;;;;;13.07;4.18;;;11.20;74.20;;;;;;5032319;28;20417;-74
2023/11/09 02:35:38;;;;;;;6.47;3.28;;;11.20;74.10;;;;;;5032193;28;20026;-74
2023/11/09 02:38:04;;;;;;;8.90;3.67;;;11.20;74.30;;;;;;5032326;28;20394;-75
2023/11/09 02:40:30;;;;;;;6.13;3.55;;;11.20;74.30;;;;;;5032424;28;20397;-76
2023/11/09 02:42:56;;;;;;;9.13;3.72;;;11.20;74.40;;;;;;5032346;28;20030;-76
2023/11/09 02:45:22;;;;;;;8.13;3.83;;;11.20;74.50;;;;;;5032218;28;20499;-75
2023/11/09 02:47:47;;;;;;;8.93;4.10;;;11.20;74.60;;;;;;5032208;28;20057;-75
2023/11/09 02:50:14;;;;;;;8.45;3.80;;;11.20;74.60;;;;;;5041893;28;20087;-75
2023/11/09 02:52:41;;;;;;;10.13;4.03;;;11.20;74.70;;;;;;5052050;28;20068;-76
2023/11/09 02:55:08;;;;;;;8.85;3.60;;;11.10;74.50;;;;;;5051853;28;20043;-75
2023/11/09 02:57:34;;;;;;;7.63;3.88;;;11.10;74.50;;;;;;5051851;28;20037;-75
2023/11/09 03:00:00;;;;;;;11.20;4.05;;;11.00;74.60;;;;;;5051777;28;20045;-76
2023/11/09 03:02:27;;;;;;;12.05;4.18;;;11.00;74.80;;;;;;5052266;28;20466;-76
2023/11/09 03:04:53;;;;;;;9.80;3.88;;;11.00;75.00;;;;;;5052329;28;20033;-75
2023/11/09 03:07:19;;;;;;;8.25;3.70;;;11.00;75.40;;;;;;5034055;28;20477;-74
2023/11/09 03:09:44;;;;;;;10.23;4.20;;;10.90;75.30;;;;;;5052028;28;20112;-76
2023/11/09 03:12:10;;;;;;;9.13;3.95;;;10.80;75.70;;;;;;5053675;28;20041;-75
2023/11/09 03:14:36;;;;;;;8.23;3.53;;;10.80;75.80;;;;;;5055168;28;20117;-76
2023/11/09 03:17:06;;;;;;;9.50;3.78;;;10.90;76.20;;;;;;5055230;28;20043;-74
2023/11/09 03:19:33;;;;;;;9.25;4.68;;;10.90;76.00;;;;;;5055443;28;20060;-75
2023/11/09 03:21:58;;;;;;;10.40;3.95;;;10.90;76.20;;;;;;5055341;28;20024;-75
2023/11/09 03:24:24;;;;;;;7.95;3.50;;;10.90;76.50;;;;;;5055419;28;20048;-76
2023/11/09 03:26:50;;;;;;;8.57;3.53;;;10.90;76.40;;;;;;5055200;28;20033;-76
2023/11/09 03:29:16;;;;;;;8.07;3.58;;;10.80;76.60;;;;;;5055715;28;20502;-76
2023/11/09 03:31:42;;;;;;;8.25;3.85;;;10.80;76.70;;;;;;5055792;28;20528;-76
2023/11/09 03:34:08;;;;;;;18.90;5.25;;;10.80;76.90;;;;;;5055136;28;20049;-76
2023/11/09 03:36:34;;;;;;;7.38;3.40;;;10.80;77.00;;;;;;5036959;28;20059;-74
2023/11/09 03:39:00;;;;;;;12.55;3.70;;;10.80;76.90;;;;;;5055048;28;20040;-75
2023/11/09 03:41:26;;;;;;;9.00;3.30;;;10.80;77.00;;;;;;5055212;28;20033;-75
2023/11/09 03:43:55;;;;;;;7.22;3.85;;;10.70;76.90;;;;;;5037230;28;20052;-75
2023/11/09 03:46:21;;;;;;;10.25;3.60;;;10.80;77.10;;;;;;5054505;28;20118;-74
2023/11/09 03:48:47;;;;;;;7.10;3.38;;;10.70;77.10;;;;;;5054684;28;20072;-76
2023/11/09 03:51:13;;;;;;;9.27;3.60;;;10.70;77.10;;;;;;5054688;28;20107;-75
2023/11/09 03:53:39;;;;;;;9.15;3.40;;;10.70;76.90;;;;;;5054861;28;20356;-75
2023/11/09 03:56:05;;;;;;;9.13;3.42;;;10.60;77.10;;;;;;5054613;28;20036;-75
2023/11/09 03:58:31;;;;;;;7.45;3.40;;;10.70;77.30;;;;;;5054867;28;20485;-76
2023/11/09 04:00:57;;;;;;;8.00;3.10;;;10.70;76.80;;;;;;5054777;28;20039;-76
2023/11/09 04:03:23;;;;;;;6.82;3.20;;;10.70;76.70;;;;;;5054824;28;20029;-75
2023/11/09 04:05:48;;;;;;;6.18;2.85;;;10.70;76.50;;;;;;5054632;28;20106;-75
2023/11/09 04:08:14;;;;;;;8.20;3.33;;;10.70;76.60;;;;;;5054440;28;20032;-75
2023/11/09 04:10:40;;;;;;;5.30;2.92;;;10.70;76.40;;;;;;5054806;28;20056;-75
2023/11/09 04:13:06;;;;;;;9.88;3.60;;;10.70;76.30;;;;;;5054601;28;20086;-77
2023/11/09 04:15:31;;;;;;;8.25;3.40;;;10.60;75.90;;;;;;5054472;28;20072;-74
2023/11/09 04:17:57;;;;;;;9.77;4.13;;;10.60;76.10;;;;;;5054124;28;20033;-74
2023/11/09 04:20:23;;;;;;;6.68;3.20;;;10.60;75.90;;;;;;5054308;28;20378;-75
2023/11/09 04:22:49;;;;;;;8.50;3.53;;;10.60;75.90;;;;;;5053701;28;20065;-76
2023/11/09 04:25:14;;;;;;;8.10;3.28;;;10.60;75.70;;;;;;5053896;28;20485;-75
2023/11/09 04:27:43;;;;;;;7.47;3.10;;;10.50;75.70;;;;;;5053835;28;20461;-75
2023/11/09 04:30:15;;;;;;;6.47;2.67;;;10.50;75.70;;;;;;5054092;28;20116;-76
2023/11/09 04:32:41;;;;;;;7.80;3.22;;;10.50;75.90;;;;;;5054217;28;20033;-76
2023/11/09 04:35:08;;;;;;;7.05;3.35;;;10.50;75.80;;;;;;5054109;28;20037;-74
2023/11/09 04:37:37;;;;;;;5.82;2.88;;;10.50;76.10;;;;;;5053932;28;20086;-76
2023/11/09 04:40:12;;;;;;;6.57;2.88;;;10.50;75.80;;;;;;5054348;28;20412;-75
2023/11/09 04:42:39;;;;;;;8.15;3.10;;;10.40;76.20;;;;;;5054581;28;20037;-74
2023/11/09 04:45:11;;;;;;;11.20;3.55;;;10.50;76.10;;;;;;5054036;28;20556;-75
2023/11/09 04:47:43;;;;;;;9.23;2.90;;;10.50;76.20;;;;;;5054011;28;20056;-76
2023/11/09 04:50:15;;;;;;;8.15;3.45;;;10.50;76.10;;;;;;5054009;28;20045;-75
2023/11/09 04:52:44;;;;;;;8.93;3.30;;;10.50;76.10;;;;;;5053708;28;20067;-75
2023/11/09 04:55:23;;;;;;;7.32;2.92;;;10.40;76.10;;;;;;5053774;28;20029;-76
2023/11/09 05:08:46;;;;;;;6.47;2.75;;;10.20;76.80;;;;;;5053732;28;19927;-77
2023/11/09 05:11:13;;;;;;;13.43;3.30;;;10.20;76.20;;;;;;5053470;28;20025;-76
2023/11/09 05:13:40;;;;;;;8.73;3.50;;;10.20;76.00;;;;;;5035624;28;20041;-76
2023/11/09 05:16:07;;;;;;;9.48;2.97;;;10.30;76.10;;;;;;5053214;28;20448;-77
2023/11/09 05:18:32;;;;;;;6.10;2.80;;;10.30;76.40;;;;;;5053226;28;20052;-76
2023/11/09 05:20:59;;;;;;;6.10;2.80;;;10.30;75.80;;;;;;5053324;28;20033;-75
2023/11/09 05:23:25;;;;;;;6.32;2.90;;;10.30;75.60;;;;;;5053129;28;20489;-75
2023/11/09 05:25:51;;;;;;;5.38;2.50;;;10.30;75.50;;;;;;5053092;28;20029;-77
2023/11/09 05:28:18;;;;;;;5.85;2.50;;;10.30;75.80;;;;;;5052838;28;20061;-77
2023/11/09 05:30:51;;;;;;;9.27;2.60;;;10.20;75.40;;;;;;5052919;28;20032;-75
2023/11/09 05:33:18;;;;;;;8.38;2.92;;;10.20;75.50;;;;;;5035161;28;20408;-75
2023/11/09 05:35:44;;;;;;;6.55;2.45;;;10.20;75.50;;;;;;5051838;28;20045;-76
2023/11/09 05:38:10;;;;;;;7.53;2.83;;;10.10;75.50;;;;;;5053048;28;20040;-76
2023/11/09 05:40:36;;;;;;;7.50;2.45;;;10.10;75.70;;;;;;5053138;28;20029;-75
2023/11/09 05:43:02;;;;;;;9.02;2.83;;;10.10;75.90;;;;;;5034859;28;20044;-74
2023/11/09 05:45:28;;;;;;;9.05;3.03;;;10.10;75.80;;;;;;5052607;28;20025;-76
2023/11/09 05:47:53;;;;;;;7.72;3.15;;;10.20;75.90;;;;;;5052509;28;20036;-75
2023/11/09 05:50:19;;;;;;;10.65;3.15;;;10.20;75.60;;;;;;5052453;28;20444;-76
2023/11/09 05:52:45;;;;;;;6.25;2.90;;;10.10;75.50;;;;;;5035074;28;20051;-76
2023/11/09 05:55:11;;;;;;;9.18;2.60;;;10.10;75.60;;;;;;5052405;28;20033;-76
2023/11/09 05:57:37;;;;;;;6.18;2.72;;;10.00;75.60;;;;;;5052601;28;20040;-75
2023/11/09 06:00:05;;;;;;;8.70;3.20;;;10.00;75.80;;;;;;5052788;28;20047;-76
2023/11/09 06:02:31;;;;;;;7.90;3.38;;;10.10;76.20;;;;;;5052787;28;20029;-77
2023/11/09 06:04:57;;;;;;;8.52;3.80;;;10.20;76.10;;;;;;5053000;28;20083;-77
2023/11/09 06:07:23;;;;;;;7.15;3.67;;;10.20;75.60;;;;;;5052912;28;20032;-76
2023/11/09 06:09:48;;;;;;;11.80;3.53;;;10.20;75.70;;;;;;5052568;28;20400;-75
2023/11/09 06:12:15;;;;;;;7.20;2.80;;;10.30;75.70;;;;;;5052361;28;20032;-74
2023/11/09 06:14:42;;;;;;;8.75;3.17;;;10.30;75.50;;;;;;5052342;28;20469;-75
2023/11/09 06:17:08;;;;;;;8.88;2.95;;;10.30;75.60;;;;;;5052615;28;20485;-75
2023/11/09 06:19:33;;;;;;;5.32;2.55;;;10.30;75.50;;;;;;5052298;28;20040;-76
2023/11/09 06:21:59;;;;;;;6.70;2.88;;;10.30;75.30;;;;;;5052442;28;20029;-76
2023/11/09 06:24:25;;;;;;;8.85;3.40;;;10.30;75.60;;;;;;5052217;28;20107;-76
2023/11/09 06:26:54;;;;;;;6.93;2.95;;;10.50;75.50;;;;;;5040831;28;20111;-80
2023/11/09 06:29:19;;;;;;;8.75;3.17;;;11.20;74.70;;;;;;5031788;28;20739;-77
2023/11/09 06:31:47;;;;;;;9.13;2.88;;;11.80;73.70;;;;;;5032293;28;20149;-75
2023/11/09 06:34:15;;;;;;;5.63;2.97;;;12.40;72.50;;;;;;5031197;28;20030;-76
2023/11/09 06:36:45;;;;;;;7.85;3.03;;;13.00;70.90;;;;;;5031606;28;20048;-77
2023/11/09 06:39:16;;;;;;;8.68;3.70;;;13.70;70.20;;;;;;5031543;28;20041;-78
2023/11/09 06:41:47;;;;;;;7.03;3.30;;;14.10;68.80;;;;;;5032129;28;20500;-77
2023/11/09 06:44:16;;;;;;;7.70;3.00;;;14.40;68.10;;;;;;5032084;28;20481;-79
2023/11/09 06:46:42;;;;;;;10.68;3.28;;;14.80;66.90;;;;;;5033125;28;20041;-76
2023/11/09 06:49:08;;;;;;;8.07;2.90;;;15.50;66.10;;;;;;5036272;28;20500;-77
2023/11/09 06:51:34;;;;;;;7.35;3.25;;;16.10;64.50;;;;;;5056244;28;20435;-77
2023/11/09 06:54:01;;;;;;;7.15;3.17;;;16.50;63.20;;;;;;5056442;28;20319;-82
2023/11/09 06:56:28;;;;;;;9.80;3.33;;;16.90;62.50;;;;;;5056172;28;20499;-81
2023/11/09 06:58:54;;;;;;;8.32;3.30;;;17.20;61.90;;;;;;5055941;28;20079;-81
2023/11/09 07:01:20;;;;;;;7.15;3.28;;;17.70;61.20;;;;;;5056175;28;20060;-81
2023/11/09 07:03:46;;;;;;;9.13;2.92;;;18.10;59.80;;;;;;5038455;28;20087;-81
2023/11/09 07:06:12;;;;;;;6.38;3.55;;;18.20;59.30;;;;;;5038523;28;20029;-82
2023/11/09 07:08:38;;;;;;;9.38;3.78;;;18.20;59.00;;;;;;5038182;28;20043;-82
2023/11/09 07:11:07;;;;;;;9.48;3.42;;;18.20;58.80;;;;;;5056175;28;20084;-82
2023/11/09 07:13:32;;;;;;;12.43;3.63;;;18.20;58.60;;;;;;5055693;28;20053;-81
2023/11/09 07:15:58;;;;;;;8.63;3.90;;;18.40;58.50;;;;;;5055985;28;20029;-82
2023/11/09 07:18:24;;;;;;;9.02;3.13;;;18.50;57.60;;;;;;5054528;28;20061;-82
2023/11/09 07:20:50;;;;;;;8.65;3.22;;;17.40;57.80;;;;;;5055095;28;20033;-80
2023/11/09 07:23:17;;;;;;;9.70;3.67;;;16.10;59.60;;;;;;5055725;28;20041;-82
2023/11/09 07:25:43;;;;;;;10.98;3.83;;;15.20;62.30;;;;;;5055874;28;20033;-80
2023/11/09 07:28:09;;;;;;;10.43;3.25;;;14.40;62.70;;;;;;5056116;28;20033;-82
2023/11/09 07:30:35;;;;;;;9.32;3.08;;;14.00;63.80;;;;;;5055735;28;20044;-81
2023/11/09 07:33:01;;;;;;;11.93;3.67;;;13.60;64.70;;;;;;5056079;28;20025;-80
2023/11/09 07:35:29;;;;;;;8.15;3.20;;;13.40;65.30;;;;;;5056425;28;20122;-81
2023/11/09 07:37:56;;;;;;;8.65;3.00;;;13.20;65.90;;;;;;5056629;28;20039;-83
2023/11/09 07:40:22;;;;;;;7.63;3.50;;;13.10;66.30;;;;;;5054884;28;20056;-81
2023/11/09 07:42:48;;;;;;;8.38;3.83;;;12.90;66.80;;;;;;5055403;28;20178;-80
2023/11/09 07:45:16;;;;;;;10.38;3.55;;;12.80;67.20;;;;;;5054829;28;20041;-81
2023/11/09 07:47:43;;;;;;;8.52;3.65;;;12.70;67.40;;;;;;5033780;28;20075;-80
2023/11/09 07:50:09;;;;;;;9.35;3.80;;;12.70;67.70;;;;;;5051622;28;20064;-82
2023/11/09 07:52:36;;;;;;;8.93;3.53;;;12.60;67.90;;;;;;5039784;28;20537;-81
2023/11/09 07:55:04;;;;;;;11.48;3.83;;;12.50;68.00;;;;;;5034020;28;20030;-80
2023/11/09 07:57:31;;;;;;;12.73;3.92;;;12.40;68.40;;;;;;5034650;28;20393;-81
2023/11/09 07:59:56;;;;;;;11.55;4.22;;;12.50;68.70;;;;;;5034363;28;20041;-80
2023/11/09 08:02:23;;;;;;;8.98;3.60;;;12.50;68.90;;;;;;5035914;28;20543;-80
2023/11/09 08:04:49;;;;;;;10.55;3.92;;;12.50;68.70;;;;;;5033951;28;20041;-80
2023/11/09 08:07:15;;;;;;;7.15;3.58;;;12.50;69.00;;;;;;5036670;28;20434;-81
2023/11/09 08:09:42;;;;;;;11.85;4.32;;;12.50;69.10;;;;;;5017576;28;20048;-81
2023/11/09 08:12:08;;;;;;;14.88;4.47;;;12.50;69.20;;;;;;5035193;28;20164;-81
2023/11/09 08:14:33;;;;;;;9.63;3.60;;;12.50;69.40;;;;;;5035166;28;20064;-82
2023/11/09 08:17:00;;;;;;;11.50;4.07;;;12.60;69.60;;;;;;5035173;28;20026;-80
2023/11/09 08:19:26;;;;;;;14.30;5.13;;;12.70;69.80;;;;;;5036757;28;20045;-78
2023/11/09 08:21:52;;;;;;;14.25;4.35;;;12.70;69.80;;;;;;5051862;28;20116;-81
2023/11/09 08:24:17;;;;;;;13.57;3.70;;;12.80;69.90;;;;;;5036674;28;20104;-81
2023/11/09 08:26:44;;;;;;;14.27;4.22;;;12.90;69.90;;;;;;5032751;28;20068;-82
2023/11/09 08:29:09;;;;;;;14.18;4.43;;;12.90;69.80;;;;;;5033021;28;20037;-82
2023/11/09 08:31:38;;;;;;;14.15;4.65;;;12.90;69.90;;;;;;5034628;28;20041;-80
2023/11/09 08:34:04;;;;;;;9.75;4.10;;;13.00;70.10;;;;;;5034482;28;20067;-82
2023/11/09 08:36:30;;;;;;;9.50;4.03;;;13.00;70.00;;;;;;5034905;28;20033;-81
2023/11/09 08:38:56;;;;;;;11.57;4.88;;;13.00;70.00;;;;;;5034528;28;20038;-82
2023/11/09 08:41:22;;;;;;;17.98;4.60;;;13.10;70.10;;;;;;5034793;28;20448;-80
2023/11/09 08:43:49;;;;;;;9.75;4.70;;;13.20;70.20;;;;;;5034534;28;20037;-79
2023/11/09 08:46:15;;;;;;;14.52;4.45;;;13.20;70.20;;;;;;5034270;28;20093;-80
2023/11/09 08:48:41;;;;;;;15.52;4.95;;;13.40;70.20;;;;;;5034853;28;20553;-77
2023/11/09 08:51:11;;;;;;;46.22;7.43;;;13.50;70.20;;;;;;5034311;28;20073;-79
2023/11/09 08:53:37;;;;;;;198.32;20.45;;;13.60;70.00;;;;;;5035525;28;20060;-80
2023/11/09 08:56:03;;;;;;;22.58;5.95;;;13.70;70.80;;;;;;5035037;28;20029;-80
2023/11/09 08:58:31;;;;;;;21.58;5.43;;;13.80;69.80;;;;;;5034434;28;20096;-80
2023/11/09 09:01:01;;;;;;;16.80;4.57;;;13.90;69.70;;;;;;5034161;28;20049;-80
2023/11/09 09:03:27;;;;;;;14.68;4.80;;;14.00;69.70;;;;;;5034117;28;20088;-81
2023/11/09 09:05:55;;;;;;;15.55;4.40;;;14.10;69.70;;;;;;5034083;28;20099;-80
2023/11/09 09:08:26;;;;;;;13.57;4.68;;;14.20;69.80;;;;;;5049271;28;20045;-78
2023/11/09 09:10:57;;;;;;;16.98;4.60;;;14.20;69.50;;;;;;5033515;28;20389;-75
2023/11/09 09:13:26;;;;;;;13.52;3.83;;;14.40;69.60;;;;;;5033748;28;20536;-78
2023/11/09 09:15:53;;;;;;;14.80;4.43;;;14.50;69.60;;;;;;5033723;28;20037;-79
2023/11/09 09:18:22;;;;;;;12.57;4.53;;;14.60;69.60;;;;;;5034723;28;20026;-76
2023/11/09 09:20:48;;;;;;;8.02;3.92;;;14.70;69.50;;;;;;5051099;28;20043;-79
2023/11/09 09:23:14;;;;;;;7.30;3.55;;;14.80;69.20;;;;;;5033943;28;20021;-77
2023/11/09 09:25:40;;;;;;;9.93;4.07;;;14.80;69.20;;;;;;5033270;28;20121;-78
2023/11/09 09:28:09;;;;;;;9.40;3.72;;;14.90;69.10;;;;;;5033132;28;20061;-78
2023/11/09 09:30:35;;;;;;;11.82;3.60;;;15.00;69.00;;;;;;5033230;28;20053;-78
2023/11/09 09:33:03;;;;;;;18.05;4.25;;;15.10;68.80;;;;;;5032719;28;20044;-78
2023/11/09 09:35:30;;;;;;;14.82;4.07;;;15.30;68.70;;;;;;5032764;28;20041;-80
2023/11/09 09:37:59;;;;;;;13.30;4.38;;;15.30;68.40;;;;;;5032131;28;20500;-80
2023/11/09 09:40:29;;;;;;;8.98;3.10;;;15.50;68.40;;;;;;5032628;28;20120;-79
2023/11/09 09:42:56;;;;;;;9.85;3.33;;;15.50;67.90;;;;;;5033726;28;20033;-80
2023/11/09 09:45:27;;;;;;;14.73;3.30;;;15.70;68.00;;;;;;5033508;28;20072;-80
2023/11/09 09:47:54;;;;;;;10.85;3.30;;;15.80;67.80;;;;;;5033144;28;20048;-79
2023/11/09 09:50:23;;;;;;;8.68;3.60;;;15.90;67.50;;;;;;5054530;28;20045;-80
2023/11/09 09:52:52;;;;;;;8.25;3.17;;;16.00;67.80;;;;;;5072944;28;20035;-80
2023/11/09 09:55:21;;;;;;;13.75;3.28;;;16.10;67.10;;;;;;5071440;28;20128;-80
2023/11/09 09:57:47;;;;;;;15.35;2.90;;;16.20;66.90;;;;;;5074223;28;20070;-85
2023/11/09 10:00:24;;;;;;;6.70;2.72;;;16.30;66.30;;;;;;5072734;28;20079;-77
2023/11/09 10:02:57;;;;;;;10.18;2.85;;;16.40;66.10;;;;;;5072772;28;20100;-79
2023/11/09 10:05:24;;;;;;;10.27;2.90;;;16.50;66.30;;;;;;5073149;28;20044;-79
2023/11/09 10:08:13;;;;;;;10.15;3.20;;;16.70;65.50;;;;;;5072904;28;20065;-78
2023/11/09 10:10:47;;;;;;;7.38;2.72;;;16.80;65.20;;;;;;5073034;28;20024;-77
2023/11/09 10:13:13;;;;;;;8.75;3.50;;;16.90;65.00;;;;;;5071131;28;20028;-79
2023/11/09 10:15:41;;;;;;;10.55;3.83;;;17.10;64.50;;;;;;5072804;28;20479;-77
2023/11/09 10:18:12;;;;;;;7.07;3.17;;;17.20;64.00;;;;;;5072194;28;20499;-81
2023/11/09 10:20:40;;;;;;;9.40;3.03;;;17.30;64.00;;;;;;5072143;28;20052;-78
2023/11/09 10:23:11;;;;;;;8.52;2.85;;;17.40;63.80;;;;;;5070646;28;20020;-81
2023/11/09 10:25:37;;;;;;;14.20;4.18;;;17.50;63.90;;;;;;5074021;28;20051;-80
2023/11/09 10:28:07;;;;;;;11.02;3.40;;;17.60;64.20;;;;;;5072649;28;20395;-78
2023/11/09 10:31:00;;;;;;;9.00;3.40;;;17.60;63.70;;;;;;5039625;28;20545;-79
2023/11/09 10:33:32;;;;;;;10.88;3.50;;;17.70;63.50;;;;;;5069280;28;20400;-78
2023/11/09 10:35:58;;;;;;;9.15;3.72;;;17.80;63.60;;;;;;5072749;28;20496;-80
2023/11/09 10:38:24;;;;;;;11.48;4.72;;;17.80;63.60;;;;;;5072380;28;20055;-83
2023/11/09 10:40:57;;;;;;;12.77;4.90;;;17.90;63.50;;;;;;5070567;28;20039;-83
2023/11/09 10:43:24;;;;;;;14.70;5.13;;;17.90;63.60;;;;;;5072627;28;20143;-84
2023/11/09 10:45:52;;;;;;;12.38;3.97;;;18.00;63.20;;;;;;5054988;28;20068;-86
2023/11/09 10:48:18;;;;;;;11.10;4.60;;;18.10;62.70;;;;;;5072631;28;20107;-82
2023/11/09 10:50:47;;;;;;;9.30;4.50;;;18.20;62.60;;;;;;5072483;28;20106;-84
2023/11/09 10:53:18;;;;;;;10.45;4.43;;;18.20;62.30;;;;;;5070855;28;20025;-80
2023/11/09 10:55:59;;;;;;;8.07;3.80;;;18.30;62.40;;;;;;5054123;28;20068;-80
2023/11/09 10:58:26;;;;;;;10.85;4.72;;;18.40;62.40;;;;;;5051782;28;20041;-81
2023/11/09 11:00:53;;;;;;;8.23;2.97;;;18.40;62.40;;;;;;5052899;28;20041;-79
2023/11/09 11:03:28;;;;;;;11.52;3.53;;;18.50;62.20;;;;;;5053697;28;20106;-87
2023/11/09 11:06:00;;;;;;;7.22;2.85;;;18.60;61.80;;;;;;5054582;28;20071;-87
2023/11/09 11:08:29;;;;;;;14.90;3.15;;;18.70;61.50;;;;;;5054000;28;20389;-76
2023/11/09 11:10:56;;;;;;;6.82;1.90;;;18.80;61.60;;;;;;5054767;28;20116;-85
2023/11/09 11:13:26;;;;;;;6.18;1.83;;;18.80;60.90;;;;;;5057548;28;20404;-84
2023/11/09 11:16:07;;;;;;;6.32;1.67;;;18.80;60.20;;;;;;5066975;28;20090;-82
2023/11/09 11:18:52;;;;;;;7.35;1.73;;;18.80;60.00;;;;;;5069994;28;20036;-82
2023/11/09 11:21:53;;;;;;;6.68;1.75;;;18.80;60.40;;;;;;5071730;28;20400;-80
2023/11/09 11:24:45;;;;;;;4.93;1.85;;;19.00;59.30;;;;;;5071854;28;20028;-82
2023/11/09 11:27:16;;;;;;;4.70;1.50;;;19.10;58.40;;;;;;5041025;28;20109;-80
2023/11/09 11:29:42;;;;;;;7.13;1.70;;;19.00;57.80;;;;;;5071878;28;20041;-80
2023/11/09 11:32:09;;;;;;;4.18;1.63;;;19.00;57.90;;;;;;5072225;28;20040;-80
2023/11/09 11:34:54;;;;;;;5.38;1.95;;;19.00;57.70;;;;;;5075503;28;20039;-80
2023/11/09 11:37:29;;;;;;;5.65;1.63;;;19.20;57.30;;;;;;5057231;28;20032;-82
2023/11/09 11:39:56;;;;;;;5.75;1.58;;;19.30;57.00;;;;;;5074993;28;20037;-80
2023/11/09 11:42:23;;;;;;;4.18;1.75;;;19.40;56.80;;;;;;5075469;28;20103;-80
2023/11/09 11:44:53;;;;;;;4.47;1.40;;;19.40;56.50;;;;;;5075997;28;20086;-82
2023/11/09 11:47:22;;;;;;;4.07;1.92;;;19.50;56.60;;;;;;5076329;28;20062;-81
2023/11/09 11:49:53;;;;;;;7.15;1.52;;;19.60;56.60;;;;;;5075596;28;20044;-81
2023/11/09 11:52:19;;;;;;;3.80;1.55;;;19.70;56.50;;;;;;5076174;28;20025;-81
2023/11/09 11:54:45;;;;;;;5.82;1.92;;;19.70;56.90;;;;;;5076343;28;20033;-80
2023/11/09 11:57:12;;;;;;;7.13;1.70;;;19.60;56.90;;;;;;5075713;28;20028;-79
2023/11/09 11:59:42;;;;;;;7.15;1.65;;;19.80;56.60;;;;;;5059736;28;20045;-78
2023/11/09 12:02:12;;;;;;;7.63;1.80;;;19.80;56.30;;;;;;5077203;28;20071;-79
2023/11/09 12:04:47;;;;;;;3.83;1.58;;;19.90;56.20;;;;;;5076232;28;20032;-80
2023/11/09 12:07:19;;;;;;;7.70;1.70;;;19.80;55.80;;;;;;5077526;28;20035;-80
2023/11/09 12:09:48;;;;;;;4.93;1.58;;;19.80;56.50;;;;;;5075560;28;20098;-81
2023/11/09 12:12:15;;;;;;;5.90;1.50;;;19.80;55.70;;;;;;5075531;28;20476;-81
2023/11/09 12:14:43;;;;;;;7.05;1.60;;;19.80;55.40;;;;;;5081208;28;20060;-80
2023/11/09 12:17:09;;;;;;;7.53;1.90;;;19.80;55.40;;;;;;5062449;28;20051;-79
2023/11/09 12:19:35;;;;;;;5.47;1.67;;;19.80;55.30;;;;;;5059021;28;20098;-82
2023/11/09 12:22:01;;;;;;;4.15;1.67;;;19.80;55.40;;;;;;5076056;28;20037;-80
2023/11/09 12:24:28;;;;;;;7.10;1.80;;;19.80;55.60;;;;;;5075036;28;20032;-80
2023/11/09 12:27:09;;;;;;;4.38;1.60;;;19.60;55.40;;;;;;5074785;28;20086;-81
2023/11/09 12:29:36;;;;;;;5.40;1.55;;;19.60;55.50;;;;;;5056560;28;20086;-81
2023/11/09 12:32:02;;;;;;;7.25;1.80;;;19.60;55.70;;;;;;5074859;28;20104;-80
2023/11/09 12:34:29;;;;;;;7.65;1.80;;;19.60;55.60;;;;;;5074694;28;20032;-80
2023/11/09 12:36:57;;;;;;;5.20;1.63;;;19.70;55.50;;;;;;5074597;28;20047;-81
2023/11/09 12:39:28;;;;;;;4.35;1.65;;;19.60;55.40;;;;;;5074950;28;20116;-80
2023/11/09 12:42:05;;;;;;;5.00;1.58;;;19.60;55.60;;;;;;5075551;28;20031;-80
2023/11/09 12:44:34;;;;;;;5.47;1.63;;;19.50;55.70;;;;;;5074825;28;20028;-82
2023/11/09 12:47:04;;;;;;;5.88;1.60;;;19.40;55.70;;;;;;5075162;28;20480;-82
2023/11/09 12:49:30;;;;;;;5.00;1.50;;;19.30;55.90;;;;;;5074646;28;20124;-81
2023/11/09 12:51:57;;;;;;;5.60;1.80;;;19.30;55.70;;;;;;5073798;28;20108;-82
2023/11/09 12:54:24;;;;;;;8.15;2.05;;;19.30;55.60;;;;;;5075055;28;20048;-81
2023/11/09 12:56:55;;;;;;;8.25;2.13;;;19.40;55.30;;;;;;5056414;28;20029;-81